Aviation Digital Data Service (ADDS)

Output produced by METARs form (1902 UTC 19 August 2019)
found at http://www.aviationweather.gov/metar/data/
 
Forecast for: NFTV (VAVA'U ISLAND , FJ)
Text: TAF NFTV 191708Z 1918/2018 13005KT 9999 -SHRA SCT007 BKN016 OVC100
Forecast period: 1800 UTC 19 August 2019 to 1800 UTC 20 August 2019
Forecast type: FROM: standard forecast or significant change
Winds: from the SE (130 degrees) at 6 MPH (5 knots; 2.6 m/s)
Visibility: 6 or more miles 10+ km)
Ceiling: 1600 feet AGL
Clouds: scattered clouds at 700 feet AGL
broken clouds at 1600 feet AGL
overcast cloud deck at 10000 feet AGL
Weather: -SHRA  (light rain showers)